Time;durP1;ratioP1;P1;durP2;ratioP2;P2;SDS_P1;SDS_P2;PMS_P1;PMS_P2;Temp;Humidity;BMP_temperature;BMP_pressure;BME280_temperature;BME280_humidity;BME280_pressure;Samples;Min_cycle;Max_cycle;Signal;HPM_P1;HPM_P2
2021/12/08 00:00:30;;;;;;;13.75;12.45;;;;;;;13.20;74.46;99811.09;5031810;27;102233;-89
2021/12/08 00:02:58;;;;;;;13.20;11.85;;;;;;;13.20;74.48;99808.34;5035124;27;102432;-89
2021/12/08 00:05:25;;;;;;;13.15;11.75;;;;;;;13.20;74.43;99813.81;5037755;27;102795;-88
2021/12/08 00:07:54;;;;;;;13.30;12.00;;;;;;;13.20;74.36;99807.56;5033805;27;102379;-89
2021/12/08 00:13:07;;;;;;;15.18;12.50;;;;;;;13.19;74.61;99820.38;5030346;27;102152;-88
2021/12/08 00:15:36;;;;;;;13.93;12.52;;;;;;;13.20;74.58;99824.75;5013095;28;104015;-89
2021/12/08 00:18:05;;;;;;;13.88;12.40;;;;;;;13.19;74.48;99823.09;5035408;27;102247;-88
2021/12/08 00:20:33;;;;;;;13.13;11.93;;;;;;;13.20;74.54;99824.75;5033979;27;102824;-88
2021/12/08 00:23:02;;;;;;;11.65;10.52;;;;;;;13.20;74.46;99819.28;5041248;27;102189;-88
2021/12/08 00:25:30;;;;;;;15.38;11.38;;;;;;;13.20;74.66;99822.00;5033942;27;102476;-88
2021/12/08 00:27:57;;;;;;;12.65;11.35;;;;;;;13.20;74.53;99816.56;5033550;27;102147;-88
2021/12/08 00:30:24;;;;;;;12.45;11.15;;;;;;;13.20;74.21;99821.22;5034165;28;102206;-88
2021/12/08 00:32:51;;;;;;;12.18;11.07;;;;;;;13.19;74.35;99814.91;5035181;28;103521;-88
2021/12/08 00:35:18;;;;;;;11.65;10.45;;;;;;;13.20;74.54;99823.94;5028436;27;103862;-88
2021/12/08 00:37:45;;;;;;;11.65;10.55;;;;;;;13.19;74.36;99814.91;5026253;27;102179;-88
2021/12/08 00:40:16;;;;;;;11.25;10.15;;;;;;;13.19;74.32;99823.09;5037409;28;102323;-88
2021/12/08 00:42:43;;;;;;;11.25;10.23;;;;;;;13.19;74.53;99823.09;5038673;27;102774;-88
2021/12/08 00:45:11;;;;;;;12.38;10.88;;;;;;;13.20;74.39;99818.47;5011449;28;103338;-88
2021/12/08 00:47:39;;;;;;;11.65;10.50;;;;;;;13.19;74.41;99812.19;5034618;27;102173;-87
2021/12/08 00:50:08;;;;;;;12.27;11.07;;;;;;;13.19;74.44;99806.72;5034587;27;103197;-87
2021/12/08 00:52:36;;;;;;;11.63;10.55;;;;;;;13.20;74.32;99804.81;5041288;27;102298;-87
2021/12/08 00:55:04;;;;;;;11.02;9.77;;;;;;;13.19;74.54;99812.19;5016991;27;103379;-87
2021/12/08 00:57:32;;;;;;;13.10;11.88;;;;;;;13.20;74.44;99799.34;5046099;27;102187;-87
2021/12/08 01:00:02;;;;;;;11.52;10.32;;;;;;;13.19;74.45;99795.78;5036463;27;102793;-87
2021/12/08 01:02:28;;;;;;;12.02;10.82;;;;;;;13.20;74.38;99796.63;5031530;27;104010;-88
2021/12/08 01:04:55;;;;;;;11.43;10.32;;;;;;;13.19;74.51;99801.25;5035546;27;103128;-87
2021/12/08 01:07:21;;;;;;;12.07;10.95;;;;;;;13.19;74.54;99801.25;5046214;27;102464;-87
2021/12/08 01:09:48;;;;;;;11.93;10.73;;;;;;;13.19;74.64;99803.97;5035400;27;102557;-87
2021/12/08 01:12:15;;;;;;;11.20;10.15;;;;;;;13.19;74.41;99798.53;5038627;27;102457;-87
2021/12/08 01:14:43;;;;;;;11.00;10.00;;;;;;;13.19;74.39;99798.53;5036389;27;103492;-86
2021/12/08 01:17:10;;;;;;;12.07;10.90;;;;;;;13.19;74.51;99795.78;5040823;27;102304;-87
2021/12/08 01:19:37;;;;;;;11.40;10.38;;;;;;;13.18;74.36;99791.44;5034985;27;102726;-87
2021/12/08 01:22:03;;;;;;;10.73;9.73;;;;;;;13.19;74.56;99795.78;5035241;27;102596;-87
2021/12/08 01:24:31;;;;;;;10.95;9.90;;;;;;;13.18;74.37;99786.00;5035533;27;102741;-87
2021/12/08 01:26:58;;;;;;;10.80;9.80;;;;;;;13.19;74.51;99795.78;5032311;27;102739;-87
2021/12/08 01:29:24;;;;;;;10.18;9.18;;;;;;;13.19;74.67;99805.91;5036128;27;102220;-87
2021/12/08 01:31:52;;;;;;;10.55;9.55;;;;;;;13.18;74.69;99794.19;5034912;27;102541;-87
2021/12/08 01:34:19;;;;;;;10.23;9.18;;;;;;;13.18;74.53;99799.66;5022208;28;102708;-87
2021/12/08 01:36:46;;;;;;;9.20;8.40;;;;;;;13.19;74.62;99797.72;5035758;27;105596;-87
2021/12/08 01:39:12;;;;;;;9.73;8.77;;;;;;;13.18;74.33;99788.72;5041944;27;102829;-87
2021/12/08 01:41:40;;;;;;;10.15;9.25;;;;;;;13.19;74.62;99784.84;5028865;27;102342;-87
2021/12/08 01:46:54;;;;;;;9.38;8.48;;;;;;;13.19;74.45;99782.13;5037414;27;102485;-87
2021/12/08 01:49:20;;;;;;;9.40;8.50;;;;;;;13.19;74.44;99779.41;5030905;27;102118;-88
2021/12/08 01:51:48;;;;;;;9.48;8.63;;;;;;;13.20;74.46;99774.75;5042850;27;102192;-87
2021/12/08 01:54:16;;;;;;;9.00;8.20;;;;;;;13.19;74.37;99778.59;5030204;27;102925;-88
2021/12/08 01:56:43;;;;;;;8.60;7.75;;;;;;;13.19;74.68;99775.84;5020506;28;102092;-88
2021/12/08 01:59:10;;;;;;;9.00;8.13;;;;;;;13.19;74.45;99778.59;5016113;28;102379;-87
2021/12/08 02:01:39;;;;;;;9.00;8.20;;;;;;;13.19;74.46;99773.94;5031302;27;102696;-88
2021/12/08 02:04:08;;;;;;;4.63;4.28;;;;;;;13.18;74.46;99777.78;5036362;27;104393;-87
2021/12/08 02:06:37;;;;;;;4.78;4.45;;;;;;;13.19;74.64;99778.59;5047404;27;102362;-88
2021/12/08 02:09:06;;;;;;;4.45;4.15;;;;;;;13.20;74.65;99775.56;5037618;27;102296;-87
2021/12/08 02:11:32;;;;;;;4.68;4.38;;;;;;;13.18;74.40;99766.88;5037426;27;102857;-88
2021/12/08 02:14:01;;;;;;;4.60;4.30;;;;;;;13.19;74.38;99782.13;5023506;28;103895;-88
2021/12/08 02:16:29;;;;;;;4.35;4.05;;;;;;;13.19;74.54;99773.94;5010306;28;103831;-88
2021/12/08 02:18:57;;;;;;;4.38;4.07;;;;;;;13.19;74.85;99762.19;5036695;27;102553;-88
2021/12/08 02:21:27;;;;;;;4.50;4.20;;;;;;;13.19;74.53;99765.75;5035460;27;102203;-88
2021/12/08 02:23:56;;;;;;;4.25;3.95;;;;;;;13.19;74.38;99763.00;5038230;27;102705;-88
2021/12/08 02:26:24;;;;;;;7.93;7.22;;;;;;;13.19;74.31;99754.81;5035962;27;102653;-88
2021/12/08 02:28:52;;;;;;;8.20;7.40;;;;;;;13.20;74.37;99756.44;5037927;27;102299;-88
2021/12/08 02:31:28;;;;;;;8.27;7.47;;;;;;;13.20;74.28;99753.72;5036171;27;102494;-88
2021/12/08 02:47:52;;;;;;;8.50;7.72;;;;;;;13.19;74.35;99743.88;5034676;27;102708;-87
2021/12/08 02:50:22;;;;;;;9.38;8.45;;;;;;;13.20;74.62;99745.50;5030249;27;102289;-87
2021/12/08 02:52:51;;;;;;;7.63;6.93;;;;;;;13.19;74.31;99738.41;5037504;27;102056;-88
2021/12/08 02:55:18;;;;;;;8.73;7.82;;;;;;;13.20;74.53;99740.06;5028551;27;102468;-87
2021/12/08 02:57:45;;;;;;;8.93;7.88;;;;;;;13.20;74.38;99734.59;5030413;27;103664;-87
2021/12/08 03:00:16;;;;;;;8.73;7.88;;;;;;;13.19;74.53;99735.69;5012050;27;102545;-87
2021/12/08 03:02:42;;;;;;;8.10;7.32;;;;;;;13.20;74.14;99733.78;5040241;27;102354;-87
2021/12/08 03:05:10;;;;;;;8.20;6.88;;;;;;;13.19;74.48;99732.94;5034397;27;102761;-87
2021/12/08 03:07:37;;;;;;;8.02;7.18;;;;;;;13.19;74.36;99735.69;5038907;27;102313;-86
2021/12/08 03:10:10;;;;;;;7.93;7.13;;;;;;;13.19;74.53;99735.69;5034407;27;102370;-87
2021/12/08 03:12:38;;;;;;;8.20;7.40;;;;;;;13.19;74.41;99732.94;5036380;27;102239;-86
2021/12/08 03:15:07;;;;;;;8.35;7.55;;;;;;;13.19;74.60;99732.94;5036560;27;103949;-86
2021/12/08 03:17:34;;;;;;;8.05;7.35;;;;;;;13.19;74.43;99735.69;5028843;27;102122;-86
2021/12/08 03:20:04;;;;;;;8.93;7.63;;;;;;;13.20;74.38;99731.06;5034345;27;102150;-85
2021/12/08 03:22:34;;;;;;;8.55;7.13;;;;;;;13.20;74.16;99733.78;5035021;27;102527;-87
2021/12/08 03:25:04;;;;;;;7.53;6.72;;;;;;;13.19;74.07;99730.22;5033780;28;104072;-87
2021/12/08 03:27:38;;;;;;;9.30;8.00;;;;;;;13.19;74.53;99724.75;5006950;27;102066;-87
2021/12/08 03:30:20;;;;;;;9.73;8.73;;;;;;;13.19;74.54;99729.41;5033536;27;102420;-87
2021/12/08 03:32:46;;;;;;;11.05;9.48;;;;;;;13.19;74.73;99721.22;5035850;27;102585;-86
2021/12/08 03:35:15;;;;;;;9.57;8.57;;;;;;;13.19;74.41;99732.94;5030022;28;102738;-86
2021/12/08 03:37:44;;;;;;;9.65;8.57;;;;;;;13.19;74.39;99726.69;5034712;27;102192;-87
2021/12/08 03:40:15;;;;;;;9.73;8.57;;;;;;;13.18;74.57;99731.34;5032372;28;102443;-87
2021/12/08 03:42:44;;;;;;;9.18;8.15;;;;;;;13.19;74.16;99723.94;5049841;27;102214;-88
2021/12/08 03:45:12;;;;;;;;;;;;;;;13.19;74.66;99730.22;5031406;27;106246;-88
2021/12/08 03:47:42;;;;;;;9.35;8.05;;;;;;;13.18;74.42;99728.63;5035285;27;102486;-87
2021/12/08 03:50:13;;;;;;;9.95;8.75;;;;;;;13.19;74.42;99730.22;5026536;27;102713;-88
2021/12/08 03:52:39;;;;;;;7.30;6.60;;;;;;;13.19;74.43;99727.50;5023372;27;102587;-88
2021/12/08 03:55:08;;;;;;;9.85;8.82;;;;;;;13.18;74.46;99728.63;5034674;28;102672;-88
2021/12/08 03:57:35;;;;;;;11.60;9.35;;;;;;;13.20;74.49;99731.06;5038152;27;102425;-88
2021/12/08 04:00:05;;;;;;;11.02;9.50;;;;;;;13.19;74.09;99740.34;5030587;27;102238;-88
2021/12/08 04:02:32;;;;;;;11.20;9.45;;;;;;;13.18;74.59;99739.53;5037804;27;102581;-88
2021/12/08 04:04:59;;;;;;;11.38;9.13;;;;;;;13.18;74.40;99739.53;5038237;27;102709;-87
2021/12/08 04:07:26;;;;;;;6.95;6.22;;;;;;;13.18;74.48;99741.47;5016674;28;102645;-87
2021/12/08 04:09:53;;;;;;;9.00;7.95;;;;;;;13.17;74.36;99737.94;5010515;28;102299;-88
2021/12/08 04:12:21;;;;;;;9.02;7.80;;;;;;;13.19;74.44;99746.63;5023391;27;102261;-85
2021/12/08 04:14:50;;;;;;;8.82;7.97;;;;;;;13.17;74.43;99746.13;5052777;27;102723;-88
2021/12/08 04:17:22;;;;;;;10.85;8.48;;;;;;;13.18;74.34;99742.28;5037505;27;102005;-87
2021/12/08 04:19:50;;;;;;;10.00;8.13;;;;;;;13.18;74.36;99750.47;5034920;27;103083;-88
2021/12/08 04:22:22;;;;;;;9.40;8.40;;;;;;;13.17;74.31;99750.78;5021466;28;102359;-88
2021/12/08 04:24:53;;;;;;;9.30;8.00;;;;;;;13.17;74.27;99748.88;5034190;27;103900;-87
2021/12/08 04:27:22;;;;;;;9.20;8.25;;;;;;;13.18;74.33;99744.22;5037247;27;102192;-87
2021/12/08 04:29:49;;;;;;;10.43;9.05;;;;;;;13.17;74.46;99748.88;5037462;27;102431;-88
2021/12/08 04:32:19;;;;;;;10.48;8.25;;;;;;;13.18;74.53;99749.66;5046047;27;102136;-88
2021/12/08 04:34:56;;;;;;;9.50;8.50;;;;;;;13.17;74.55;99740.66;5032197;27;102476;-88
2021/12/08 04:37:29;;;;;;;9.57;8.60;;;;;;;13.16;74.37;99747.25;5037680;27;102088;-88
2021/12/08 04:40:23;;;;;;;9.80;8.27;;;;;;;13.17;74.52;99743.41;5026044;27;102460;-88
2021/12/08 04:45:29;;;;;;;11.40;8.60;;;;;;;13.17;74.37;99746.13;5025361;27;102731;-87
2021/12/08 04:48:14;;;;;;;10.25;8.65;;;;;;;13.16;74.43;99741.78;5015456;27;102090;-88
2021/12/08 05:07:28;;;;;;;10.50;8.70;;;;;;;13.16;74.55;99763.66;5047480;27;102793;-90
2021/12/08 05:09:56;;;;;;;11.07;9.00;;;;;;;13.16;74.44;99766.38;5014493;27;102682;-89
2021/12/08 05:12:26;;;;;;;10.43;9.02;;;;;;;13.16;74.39;99766.38;5023456;28;102233;-88
2021/12/08 05:14:57;;;;;;;9.85;8.85;;;;;;;13.18;74.22;99775.06;5036686;27;102416;-89
2021/12/08 05:17:30;;;;;;;10.52;8.15;;;;;;;13.17;74.42;99775.38;5034990;27;104114;-88
2021/12/08 05:20:02;;;;;;;10.13;8.32;;;;;;;13.17;74.32;99770.72;5036013;27;102471;-89
2021/12/08 05:22:33;;;;;;;10.95;8.80;;;;;;;13.17;74.28;99778.91;5036612;27;103103;-86
2021/12/08 05:25:07;;;;;;;9.75;8.57;;;;;;;13.18;74.35;99788.72;5019144;28;102629;-86
2021/12/08 05:27:40;;;;;;;10.23;8.80;;;;;;;13.17;74.37;99795.31;5035519;27;103852;-86
2021/12/08 05:30:11;;;;;;;9.70;8.65;;;;;;;13.16;74.46;99796.44;5035836;27;102691;-87
2021/12/08 05:32:39;;;;;;;9.63;8.63;;;;;;;13.18;74.23;99804.31;5041661;27;103404;-86
2021/12/08 05:35:10;;;;;;;13.60;8.88;;;;;;;13.17;74.26;99798.03;5046197;27;102403;-87
2021/12/08 05:37:38;;;;;;;10.25;8.45;;;;;;;13.17;74.48;99803.50;5029590;27;102849;-87
2021/12/08 05:40:09;;;;;;;10.65;8.70;;;;;;;13.16;74.18;99795.59;5036729;27;102612;-87
2021/12/08 05:42:36;;;;;;;11.63;8.65;;;;;;;13.17;74.30;99802.69;5036582;27;102264;-88
2021/12/08 05:45:06;;;;;;;10.60;8.50;;;;;;;13.17;74.37;99806.25;5034262;27;102464;-87
2021/12/08 05:47:33;;;;;;;10.77;8.80;;;;;;;13.17;74.32;99803.50;5031718;27;102642;-88
2021/12/08 05:49:59;;;;;;;9.88;8.90;;;;;;;13.17;74.26;99800.78;5036184;27;102448;-87
2021/12/08 05:52:28;;;;;;;11.07;8.85;;;;;;;13.16;74.38;99801.91;5035630;27;102253;-87
2021/12/08 05:54:54;;;;;;;9.50;8.20;;;;;;;13.17;74.46;99803.50;5036219;27;102495;-88
2021/12/08 05:57:23;;;;;;;10.77;8.82;;;;;;;13.17;74.37;99803.50;5036570;27;102802;-87
2021/12/08 05:59:51;;;;;;;;;;;;;;;13.17;74.38;99803.50;5036917;27;102196;-87
2021/12/08 06:02:22;;;;;;;11.75;9.10;;;;;;;13.17;74.47;99799.97;5032592;27;102812;-86
2021/12/08 06:04:49;;;;;;;10.20;9.00;;;;;;;13.17;74.36;99798.03;5031837;27;102243;-88
2021/12/08 06:07:21;;;;;;;11.70;9.35;;;;;;;13.17;74.30;99798.03;5037748;27;102578;-88
2021/12/08 06:09:50;;;;;;;10.57;8.80;;;;;;;13.17;74.51;99799.97;5028801;27;102137;-88
2021/12/08 06:12:17;;;;;;;10.07;8.27;;;;;;;13.16;74.23;99793.69;5036792;27;102587;-88
2021/12/08 06:14:45;;;;;;;9.90;8.63;;;;;;;13.16;74.22;99801.91;5017485;28;102555;-88
2021/12/08 06:17:18;;;;;;;9.93;8.35;;;;;;;13.16;74.34;99806.53;5031562;27;103833;-88
2021/12/08 06:19:47;;;;;;;9.93;8.93;;;;;;;13.17;74.48;99803.50;5034743;27;102531;-87
2021/12/08 06:22:16;;;;;;;9.60;8.30;;;;;;;13.17;74.26;99802.69;5032008;27;102140;-88
2021/12/08 06:24:44;;;;;;;11.40;8.73;;;;;;;13.16;74.30;99801.91;5034939;27;102310;-89
2021/12/08 06:27:12;;;;;;;10.98;8.43;;;;;;;13.17;74.37;99803.50;5042257;27;102706;-88
2021/12/08 06:29:40;;;;;;;9.73;8.73;;;;;;;13.17;74.27;99803.50;5029710;27;102216;-88
2021/12/08 06:32:09;;;;;;;10.93;8.48;;;;;;;13.17;74.26;99803.50;5036389;27;102327;-88
2021/12/08 06:34:37;;;;;;;9.48;8.48;;;;;;;13.16;74.29;99812.00;5037906;27;102246;-88
2021/12/08 06:37:08;;;;;;;10.02;8.20;;;;;;;13.17;74.18;99805.44;5027014;27;103121;-88
2021/12/08 06:39:43;;;;;;;12.85;9.48;;;;;;;13.17;74.40;99805.44;5014458;28;102252;-88
2021/12/08 06:42:17;;;;;;;8.80;7.90;;;;;;;13.17;74.15;99810.91;5034638;27;102458;-87
2021/12/08 06:44:46;;;;;;;10.25;7.88;;;;;;;13.16;74.40;99812.84;5041505;27;102206;-88
2021/12/08 06:47:16;;;;;;;9.45;7.78;;;;;;;13.16;74.37;99812.84;5034308;27;103971;-87
2021/12/08 06:49:45;;;;;;;11.98;8.23;;;;;;;13.16;74.21;99801.06;5035018;27;102763;-87
2021/12/08 06:52:16;;;;;;;9.57;8.13;;;;;;;13.16;74.30;99798.34;5002912;28;102922;-88
2021/12/08 06:54:47;;;;;;;9.57;7.80;;;;;;;13.16;74.20;99812.00;5011341;28;102681;-93
2021/12/08 06:57:22;;;;;;;9.98;7.80;;;;;;;13.16;74.27;99815.56;5014683;28;102713;-92
2021/12/08 07:00:00;;;;;;;8.73;7.72;;;;;;;13.17;74.25;99810.91;5014486;28;102161;-92
2021/12/08 07:05:13;;;;;;;8.27;7.30;;;;;;;13.16;74.41;99807.38;5018035;28;102598;-91
2021/12/08 07:07:44;;;;;;;11.27;8.27;;;;;;;13.16;74.29;99812.84;4995377;28;102858;-90
2021/12/08 07:10:20;;;;;;;9.63;8.43;;;;;;;13.16;74.30;99812.84;4992720;28;102585;-92
2021/12/08 07:12:56;;;;;;;9.73;8.37;;;;;;;13.16;74.69;99806.53;4996558;28;102347;-94
2021/12/08 07:19:10;;;;;;;8.50;7.28;;;;;;;13.16;74.34;99812.00;4962125;22;107546;-62
2021/12/08 07:21:40;;;;;;;8.93;7.18;;;;;;;13.16;74.25;99807.38;5050751;27;102165;-61
2021/12/08 07:24:12;;;;;;;8.50;7.35;;;;;;;13.17;74.33;99808.97;5045570;27;102410;-61
2021/12/08 07:26:40;;;;;;;8.98;7.65;;;;;;;13.17;74.01;99808.97;5049622;27;102058;-62
2021/12/08 07:29:11;;;;;;;8.15;7.35;;;;;;;13.17;73.74;99808.97;5038501;27;103865;-62
2021/12/08 07:31:40;;;;;;;9.32;7.82;;;;;;;13.17;74.29;99808.97;5052309;27;102212;-61
2021/12/08 07:34:09;;;;;;;10.32;7.90;;;;;;;13.18;74.17;99813.31;5045853;27;102686;-61
2021/12/08 07:36:39;;;;;;;9.68;7.22;;;;;;;13.18;74.24;99818.78;5048894;27;102725;-63
2021/12/08 07:39:10;;;;;;;8.18;7.32;;;;;;;13.17;74.33;99819.91;5052421;27;103912;-61
2021/12/08 07:41:39;;;;;;;8.65;6.93;;;;;;;13.18;74.07;99816.03;5046468;27;102351;-61
2021/12/08 07:44:10;;;;;;;8.82;7.68;;;;;;;13.19;74.26;99817.66;5047240;27;103627;-61
2021/12/08 07:46:48;;;;;;;9.27;8.05;;;;;;;13.18;74.38;99821.50;5041642;27;102499;-61
2021/12/08 07:49:18;;;;;;;8.05;6.97;;;;;;;13.18;74.31;99810.56;5016980;28;104072;-62
2021/12/08 07:51:48;;;;;;;8.80;7.70;;;;;;;13.19;74.21;99814.91;5031995;28;102215;-61
2021/12/08 07:54:15;;;;;;;8.27;7.40;;;;;;;13.18;74.15;99818.78;5023943;28;102503;-62
2021/12/08 07:56:46;;;;;;;9.00;7.00;;;;;;;13.19;74.41;99816.84;5027377;28;102202;-60
2021/12/08 07:59:18;;;;;;;7.38;6.60;;;;;;;13.19;74.21;99817.66;5025678;28;104004;-61
2021/12/08 08:01:47;;;;;;;8.30;7.28;;;;;;;13.19;74.33;99822.31;5031091;27;103018;-61
2021/12/08 08:04:18;;;;;;;6.80;6.20;;;;;;;13.19;74.09;99816.84;5030119;28;102323;-61
2021/12/08 08:06:47;;;;;;;7.65;6.80;;;;;;;13.19;73.84;99823.09;5026020;27;102059;-61
2021/12/08 08:09:22;;;;;;;7.00;6.32;;;;;;;13.19;74.22;99816.84;5024927;28;103715;-60
2021/12/08 08:11:56;;;;;;;7.15;6.43;;;;;;;13.18;74.07;99810.56;5022611;28;104430;-61
2021/12/08 08:14:30;;;;;;;6.68;6.07;;;;;;;13.19;74.36;99814.91;5031381;28;102238;-62
2021/12/08 08:16:59;;;;;;;7.93;7.10;;;;;;;13.19;74.38;99806.72;5026646;28;102298;-61
2021/12/08 08:19:29;;;;;;;9.82;7.25;;;;;;;13.19;74.14;99812.19;5027939;28;107798;-61
2021/12/08 08:22:02;;;;;;;7.70;6.88;;;;;;;13.20;74.25;99813.00;5024027;28;102160;-61
2021/12/08 08:24:28;;;;;;;7.75;6.90;;;;;;;13.20;74.26;99810.28;5025281;28;102124;-61
2021/12/08 08:26:59;;;;;;;7.30;6.60;;;;;;;13.18;74.24;99801.56;5029527;27;102474;-62
2021/12/08 08:29:28;;;;;;;7.15;6.32;;;;;;;13.19;74.12;99803.97;5023456;28;105215;-61
2021/12/08 08:31:59;;;;;;;7.10;6.40;;;;;;;13.19;74.26;99809.44;5030385;27;102195;-61
2021/12/08 08:34:29;;;;;;;7.50;6.32;;;;;;;13.19;74.31;99806.72;5028221;28;102697;-61
2021/12/08 08:36:56;;;;;;;6.88;6.18;;;;;;;13.19;74.22;99806.72;5027430;28;103512;-62
2021/12/08 08:39:25;;;;;;;7.38;6.57;;;;;;;13.20;74.32;99807.56;5031400;28;104193;-61
2021/12/08 08:41:59;;;;;;;6.33;5.33;;;;;;;13.19;74.39;99809.44;5024761;28;102400;-61
2021/12/08 08:44:31;;;;;;;7.45;6.30;;;;;;;13.18;74.33;99799.66;5028428;28;103332;-61
2021/12/08 08:47:00;;;;;;;6.80;6.10;;;;;;;13.19;74.20;99801.25;5025514;28;102378;-61
2021/12/08 08:49:30;;;;;;;7.63;6.72;;;;;;;13.18;74.16;99794.19;5027686;28;103916;-61
2021/12/08 08:52:00;;;;;;;7.03;6.35;;;;;;;13.19;74.11;99798.53;5018567;27;103680;-62
2021/12/08 08:54:30;;;;;;;7.88;6.13;;;;;;;13.19;74.19;99806.72;5024439;28;103716;-62
2021/12/08 08:57:00;;;;;;;7.32;6.57;;;;;;;13.19;74.23;99795.78;5020350;28;102310;-61
2021/12/08 08:59:32;;;;;;;7.60;5.90;;;;;;;13.20;74.30;99789.22;5021162;27;103178;-60
2021/12/08 09:02:07;;;;;;;6.13;5.53;;;;;;;13.19;74.22;99793.06;5027507;28;102347;-60
2021/12/08 09:04:37;;;;;;;6.30;5.70;;;;;;;13.20;74.29;99791.97;5027168;28;102252;-61
2021/12/08 09:07:06;;;;;;;6.32;5.72;;;;;;;13.19;74.18;99790.31;5025991;27;102371;-61
2021/12/08 09:09:37;;;;;;;7.20;6.50;;;;;;;13.20;74.76;99791.16;5026676;28;103879;-62
2021/12/08 09:12:09;;;;;;;6.90;6.20;;;;;;;13.19;74.21;99784.84;5029912;28;102142;-61
2021/12/08 09:14:44;;;;;;;7.88;7.07;;;;;;;13.19;74.18;99784.84;5030098;27;102446;-61
2021/12/08 09:17:14;;;;;;;6.55;5.70;;;;;;;13.20;74.36;99783.75;5033191;28;102390;-61
2021/12/08 09:20:01;;;;;;;9.98;6.85;;;;;;;13.20;74.24;99785.69;5028566;27;103959;-62
2021/12/08 09:22:31;;;;;;;7.20;6.45;;;;;;;13.20;74.29;99791.97;5027962;28;102472;-62
2021/12/08 09:25:03;;;;;;;6.20;5.60;;;;;;;13.19;74.11;99795.78;5027493;27;102616;-61
2021/12/08 09:27:36;;;;;;;7.85;7.05;;;;;;;13.20;74.30;99793.88;5023783;28;102744;-61
2021/12/08 09:30:09;;;;;;;7.00;6.15;;;;;;;13.19;74.25;99784.84;5023121;28;103899;-61
2021/12/08 09:32:42;;;;;;;7.28;6.45;;;;;;;13.20;74.20;99783.75;5025557;27;102099;-61
2021/12/08 09:35:14;;;;;;;7.63;6.75;;;;;;;13.20;74.27;99782.97;5022215;28;102217;-62
2021/12/08 09:37:46;;;;;;;6.97;6.00;;;;;;;13.20;74.46;99780.22;5027178;28;102318;-62
2021/12/08 09:40:18;;;;;;;7.15;6.22;;;;;;;13.21;74.06;99779.09;5023371;27;103930;-63
2021/12/08 09:42:48;;;;;;;7.50;6.10;;;;;;;13.20;74.10;99774.75;5023555;27;102634;-61
2021/12/08 09:45:22;;;;;;;7.05;6.35;;;;;;;13.20;74.23;99770.09;5018200;28;102754;-61
2021/12/08 09:47:49;;;;;;;6.60;5.95;;;;;;;13.20;74.16;99763.84;5028782;28;102321;-62
2021/12/08 09:50:17;;;;;;;6.68;6.07;;;;;;;13.20;74.38;99770.09;5021288;28;103239;-62
2021/12/08 09:52:45;;;;;;;6.18;5.57;;;;;;;13.20;74.33;99775.56;5025857;28;102156;-62
2021/12/08 09:55:15;;;;;;;7.03;6.00;;;;;;;13.21;74.20;99774.44;5030215;28;102129;-62
2021/12/08 09:57:43;;;;;;;7.38;6.63;;;;;;;13.21;74.35;99766.25;5035815;28;102201;-61
2021/12/08 10:00:15;;;;;;;6.32;5.72;;;;;;;13.21;74.21;99766.25;5035558;28;104697;-61
2021/12/08 10:02:44;;;;;;;6.53;5.88;;;;;;;13.21;74.16;99760.78;5029322;27;102555;-62
2021/12/08 10:05:14;;;;;;;6.63;5.83;;;;;;;13.22;74.24;99756.91;5029161;28;102512;-61
2021/12/08 10:07:42;;;;;;;6.40;5.80;;;;;;;13.22;74.10;99756.13;5032205;28;102645;-62
2021/12/08 10:10:12;;;;;;;6.50;5.80;;;;;;;13.22;74.13;99761.59;5023032;27;104024;-62
2021/12/08 10:12:39;;;;;;;6.75;6.05;;;;;;;13.21;74.22;99749.84;5035876;28;102255;-61
2021/12/08 10:15:09;;;;;;;5.78;5.22;;;;;;;13.21;74.21;99744.38;5031808;27;102784;-61
2021/12/08 10:17:36;;;;;;;6.03;5.32;;;;;;;13.22;74.17;99746.00;5027307;28;102526;-62
2021/12/08 10:20:12;;;;;;;6.60;5.60;;;;;;;13.22;74.17;99746.00;5020902;28;103837;-61
2021/12/08 10:22:40;;;;;;;6.03;5.40;;;;;;;13.23;74.32;99741.34;5027283;27;102331;-61
2021/12/08 10:25:09;;;;;;;6.85;5.88;;;;;;;13.24;74.15;99742.19;5023644;28;102141;-61
2021/12/08 10:27:50;;;;;;;;;;;;;;;13.24;74.37;99747.66;5025041;28;102362;-61
2021/12/08 10:30:20;;;;;;;6.88;5.38;;;;;;;13.24;74.27;99747.66;5024999;28;103914;-61
2021/12/08 10:32:49;;;;;;;6.38;5.78;;;;;;;13.24;74.24;99743.00;5025776;28;102439;-61
2021/12/08 10:35:44;;;;;;;1.80;1.70;;;;;;;13.24;74.52;99743.00;5023672;28;103925;-61
2021/12/08 10:38:11;;;;;;;1.70;1.60;;;;;;;13.24;74.32;99745.72;5027642;28;104603;-61
2021/12/08 10:40:54;;;;;;;1.98;1.88;;;;;;;13.24;74.32;99743.00;5033849;27;103810;-62
2021/12/08 10:43:20;;;;;;;2.38;2.20;;;;;;;13.25;74.35;99752.00;5027043;28;102260;-61
2021/12/08 10:46:04;;;;;;;1.92;1.83;;;;;;;13.24;74.32;99753.13;5029647;27;102603;-60
2021/12/08 10:48:37;;;;;;;2.00;1.90;;;;;;;13.26;74.25;99748.13;5029328;28;102352;-61
2021/12/08 10:54:26;;;;;;;;;;;;;;;13.25;74.14;99743.78;5027541;27;102220;-61
2021/12/08 10:56:56;;;;;;;;;;;;;;;13.24;74.22;99753.13;5031118;28;103615;-61
2021/12/08 10:59:25;;;;;;;1.90;1.80;;;;;;;13.25;74.25;99746.53;5028074;28;102509;-61
2021/12/08 11:01:53;;;;;;;2.10;2.00;;;;;;;13.24;74.01;99742.19;5029366;27;103840;-61
2021/12/08 11:04:29;;;;;;;1.98;1.88;;;;;;;13.25;73.87;99749.25;5031097;28;102489;-62
2021/12/08 11:07:05;;;;;;;1.77;1.67;;;;;;;13.25;74.41;99760.19;5022224;28;104320;-61
2021/12/08 11:09:39;;;;;;;2.05;1.95;;;;;;;13.24;74.23;99750.38;5032174;28;103379;-61
2021/12/08 11:12:06;;;;;;;1.85;1.75;;;;;;;13.25;74.42;99754.72;5028006;28;103950;-60
2021/12/08 11:14:43;;;;;;;1.85;1.70;;;;;;;13.24;74.22;99766.78;5022702;27;102343;-61
2021/12/08 11:17:24;;;;;;;1.77;1.67;;;;;;;13.25;74.09;99765.66;5020155;28;102240;-62
2021/12/08 11:20:16;;;;;;;1.88;1.77;;;;;;;13.25;74.26;99760.19;5035159;27;102567;-61
2021/12/08 11:22:46;;;;;;;1.45;1.35;;;;;;;13.24;74.17;99764.84;5022154;28;103903;-61
2021/12/08 11:25:23;;;;;;;1.63;1.52;;;;;;;13.25;74.22;99771.13;5022207;28;102203;-61
2021/12/08 11:27:49;;;;;;;1.50;1.40;;;;;;;13.24;74.06;99766.78;5027658;28;102415;-61
2021/12/08 11:30:22;;;;;;;1.60;1.50;;;;;;;13.24;74.11;99773.06;5028232;28;102612;-61
2021/12/08 11:32:48;;;;;;;1.63;1.52;;;;;;;13.24;73.96;99773.06;5022820;28;103866;-61
2021/12/08 11:35:20;;;;;;;1.90;1.80;;;;;;;13.24;74.09;99772.25;5025812;27;102254;-61
2021/12/08 11:37:58;;;;;;;4.00;3.65;;;;;;;13.24;74.12;99769.50;5027092;27;103640;-61
2021/12/08 11:40:25;;;;;;;3.20;2.90;;;;;;;13.24;74.09;99762.13;5021277;28;102488;-61
2021/12/08 11:42:51;;;;;;;3.40;3.10;;;;;;;13.24;74.42;99774.97;5027448;28;103870;-61
2021/12/08 11:45:18;;;;;;;3.40;3.10;;;;;;;13.24;73.98;99761.31;5028441;27;102388;-61
2021/12/08 11:47:45;;;;;;;3.33;3.03;;;;;;;13.23;74.18;99774.13;5026630;28;102521;-61
2021/12/08 11:50:14;;;;;;;3.08;2.78;;;;;;;13.22;74.18;99773.31;5025182;28;102445;-61
2021/12/08 11:52:41;;;;;;;3.33;2.90;;;;;;;13.22;74.06;99773.31;5027807;28;104108;-61
2021/12/08 11:55:12;;;;;;;3.38;3.08;;;;;;;13.23;74.19;99774.13;5014299;27;103739;-62
2021/12/08 11:57:42;;;;;;;3.30;3.00;;;;;;;13.22;74.32;99772.50;5023353;28;102550;-62
2021/12/08 12:00:11;;;;;;;4.03;3.63;;;;;;;13.22;74.09;99772.50;5018540;28;102338;-61
2021/12/08 12:02:40;;;;;;;3.22;2.92;;;;;;;13.22;74.23;99780.72;5025331;28;103900;-61
2021/12/08 12:05:09;;;;;;;3.53;3.17;;;;;;;13.22;73.93;99783.44;5033845;28;102967;-61
2021/12/08 12:07:38;;;;;;;3.22;2.92;;;;;;;13.24;74.02;99785.91;5026585;28;102835;-62
2021/12/08 12:10:12;;;;;;;3.55;3.20;;;;;;;13.22;74.18;99788.91;5018509;28;102215;-61
2021/12/08 12:12:41;;;;;;;2.97;2.78;;;;;;;13.21;74.26;99788.09;5020061;28;104066;-61
2021/12/08 12:15:11;;;;;;;3.45;3.15;;;;;;;13.21;74.02;99799.03;5021640;28;102472;-61
2021/12/08 12:17:37;;;;;;;3.67;3.08;;;;;;;13.21;74.20;99801.75;5029734;28;102125;-61
2021/12/08 12:20:09;;;;;;;3.53;3.22;;;;;;;13.22;73.97;99811.56;5023602;28;102828;-60
2021/12/08 12:22:45;;;;;;;3.25;2.95;;;;;;;13.22;74.11;99802.56;5027746;28;104206;-61
2021/12/08 12:25:36;;;;;;;3.38;3.08;;;;;;;13.21;74.04;99809.97;5026671;28;102466;-62